sensor_id;sensor_type;location;lat;lon;timestamp;P1;durP1;ratioP1;P2;durP2;ratioP2
25481;SDS011;13395;50.752;4.268;2022-07-06T00:00:04;4.05;;;2.72;;
25481;SDS011;13395;50.752;4.268;2022-07-06T00:02:30;5.00;;;2.28;;
25481;SDS011;13395;50.752;4.268;2022-07-06T00:04:56;4.78;;;2.05;;
25481;SDS011;13395;50.752;4.268;2022-07-06T00:07:22;4.05;;;2.10;;
25481;SDS011;13395;50.752;4.268;2022-07-06T00:09:48;6.32;;;2.35;;
25481;SDS011;13395;50.752;4.268;2022-07-06T00:12:15;5.53;;;2.30;;
25481;SDS011;13395;50.752;4.268;2022-07-06T00:14:40;3.28;;;2.20;;
25481;SDS011;13395;50.752;4.268;2022-07-06T00:17:06;9.25;;;2.40;;
25481;SDS011;13395;50.752;4.268;2022-07-06T00:19:32;4.95;;;2.60;;
25481;SDS011;13395;50.752;4.268;2022-07-06T00:21:57;5.15;;;2.55;;
25481;SDS011;13395;50.752;4.268;2022-07-06T00:24:23;3.80;;;2.10;;
25481;SDS011;13395;50.752;4.268;2022-07-06T00:26:49;3.40;;;2.53;;
25481;SDS011;13395;50.752;4.268;2022-07-06T00:29:14;5.40;;;2.45;;
25481;SDS011;13395;50.752;4.268;2022-07-06T00:31:40;5.10;;;2.55;;
25481;SDS011;13395;50.752;4.268;2022-07-06T00:34:06;6.55;;;3.00;;
25481;SDS011;13395;50.752;4.268;2022-07-06T00:36:31;6.47;;;2.80;;
25481;SDS011;13395;50.752;4.268;2022-07-06T00:38:57;9.85;;;2.53;;
25481;SDS011;13395;50.752;4.268;2022-07-06T00:41:22;5.13;;;2.17;;
25481;SDS011;13395;50.752;4.268;2022-07-06T00:43:52;7.47;;;2.50;;
25481;SDS011;13395;50.752;4.268;2022-07-06T00:46:24;8.23;;;2.70;;
25481;SDS011;13395;50.752;4.268;2022-07-06T00:48:56;3.58;;;2.67;;
25481;SDS011;13395;50.752;4.268;2022-07-06T00:51:22;3.53;;;2.35;;
25481;SDS011;13395;50.752;4.268;2022-07-06T00:54:01;3.92;;;2.67;;
25481;SDS011;13395;50.752;4.268;2022-07-06T00:56:29;3.72;;;2.47;;
25481;SDS011;13395;50.752;4.268;2022-07-06T00:59:01;6.78;;;2.72;;
25481;SDS011;13395;50.752;4.268;2022-07-06T01:01:28;6.05;;;2.72;;
25481;SDS011;13395;50.752;4.268;2022-07-06T01:03:53;2.78;;;2.20;;
25481;SDS011;13395;50.752;4.268;2022-07-06T01:06:19;8.48;;;3.20;;
25481;SDS011;13395;50.752;4.268;2022-07-06T01:08:45;4.40;;;2.30;;
25481;SDS011;13395;50.752;4.268;2022-07-06T01:11:11;3.22;;;2.22;;
25481;SDS011;13395;50.752;4.268;2022-07-06T01:13:37;3.20;;;2.50;;
25481;SDS011;13395;50.752;4.268;2022-07-06T01:16:04;5.93;;;2.22;;
25481;SDS011;13395;50.752;4.268;2022-07-06T01:18:30;5.18;;;2.63;;
25481;SDS011;13395;50.752;4.268;2022-07-06T01:21:10;4.90;;;2.55;;
25481;SDS011;13395;50.752;4.268;2022-07-06T01:23:44;3.95;;;2.83;;
25481;SDS011;13395;50.752;4.268;2022-07-06T01:26:12;3.90;;;2.20;;
25481;SDS011;13395;50.752;4.268;2022-07-06T01:28:39;7.82;;;3.15;;
25481;SDS011;13395;50.752;4.268;2022-07-06T01:31:05;4.50;;;2.47;;
25481;SDS011;13395;50.752;4.268;2022-07-06T01:33:38;3.35;;;2.45;;
25481;SDS011;13395;50.752;4.268;2022-07-06T01:36:03;4.57;;;2.60;;
25481;SDS011;13395;50.752;4.268;2022-07-06T01:38:29;4.38;;;2.70;;
25481;SDS011;13395;50.752;4.268;2022-07-06T01:40:55;5.82;;;2.85;;
25481;SDS011;13395;50.752;4.268;2022-07-06T01:43:20;4.45;;;2.30;;
25481;SDS011;13395;50.752;4.268;2022-07-06T01:45:46;4.45;;;2.65;;
25481;SDS011;13395;50.752;4.268;2022-07-06T01:48:12;5.38;;;3.17;;
25481;SDS011;13395;50.752;4.268;2022-07-06T01:50:37;4.20;;;2.83;;
25481;SDS011;13395;50.752;4.268;2022-07-06T01:53:03;4.35;;;2.53;;
25481;SDS011;13395;50.752;4.268;2022-07-06T01:55:28;7.57;;;2.67;;
25481;SDS011;13395;50.752;4.268;2022-07-06T01:57:54;4.20;;;2.45;;
25481;SDS011;13395;50.752;4.268;2022-07-06T02:00:20;5.80;;;2.72;;
25481;SDS011;13395;50.752;4.268;2022-07-06T02:02:45;4.20;;;2.80;;
25481;SDS011;13395;50.752;4.268;2022-07-06T02:05:11;3.13;;;2.63;;
25481;SDS011;13395;50.752;4.268;2022-07-06T02:07:36;3.60;;;2.88;;
25481;SDS011;13395;50.752;4.268;2022-07-06T02:10:02;5.50;;;2.85;;
25481;SDS011;13395;50.752;4.268;2022-07-06T02:12:28;6.18;;;2.90;;
25481;SDS011;13395;50.752;4.268;2022-07-06T02:14:54;7.93;;;3.20;;
25481;SDS011;13395;50.752;4.268;2022-07-06T02:17:19;7.70;;;3.15;;
25481;SDS011;13395;50.752;4.268;2022-07-06T02:19:45;4.55;;;2.83;;
25481;SDS011;13395;50.752;4.268;2022-07-06T02:22:10;3.70;;;2.70;;
25481;SDS011;13395;50.752;4.268;2022-07-06T02:24:36;3.42;;;2.78;;
25481;SDS011;13395;50.752;4.268;2022-07-06T02:27:02;5.95;;;2.80;;
25481;SDS011;13395;50.752;4.268;2022-07-06T02:29:27;9.52;;;3.08;;
25481;SDS011;13395;50.752;4.268;2022-07-06T02:31:53;4.78;;;2.40;;
25481;SDS011;13395;50.752;4.268;2022-07-06T02:34:19;3.90;;;2.80;;
25481;SDS011;13395;50.752;4.268;2022-07-06T02:36:44;4.85;;;2.90;;
25481;SDS011;13395;50.752;4.268;2022-07-06T02:39:10;8.20;;;3.42;;
25481;SDS011;13395;50.752;4.268;2022-07-06T02:41:35;6.72;;;2.95;;
25481;SDS011;13395;50.752;4.268;2022-07-06T02:44:01;5.25;;;2.90;;
25481;SDS011;13395;50.752;4.268;2022-07-06T02:46:27;6.97;;;3.15;;
25481;SDS011;13395;50.752;4.268;2022-07-06T02:48:52;4.30;;;3.15;;
25481;SDS011;13395;50.752;4.268;2022-07-06T02:51:18;5.80;;;3.15;;
25481;SDS011;13395;50.752;4.268;2022-07-06T02:53:43;9.02;;;2.92;;
25481;SDS011;13395;50.752;4.268;2022-07-06T02:56:09;3.85;;;2.63;;
25481;SDS011;13395;50.752;4.268;2022-07-06T02:58:34;3.83;;;2.55;;
25481;SDS011;13395;50.752;4.268;2022-07-06T03:01:00;5.35;;;3.17;;
25481;SDS011;13395;50.752;4.268;2022-07-06T03:03:26;3.85;;;3.15;;
25481;SDS011;13395;50.752;4.268;2022-07-06T03:05:51;7.90;;;3.67;;
25481;SDS011;13395;50.752;4.268;2022-07-06T03:08:17;4.63;;;3.35;;
25481;SDS011;13395;50.752;4.268;2022-07-06T03:10:42;5.30;;;3.08;;
25481;SDS011;13395;50.752;4.268;2022-07-06T03:13:08;5.72;;;3.47;;
25481;SDS011;13395;50.752;4.268;2022-07-06T03:15:34;3.85;;;3.00;;
25481;SDS011;13395;50.752;4.268;2022-07-06T03:17:59;4.82;;;2.72;;
25481;SDS011;13395;50.752;4.268;2022-07-06T03:20:25;5.50;;;2.95;;
25481;SDS011;13395;50.752;4.268;2022-07-06T03:22:51;3.97;;;2.70;;
25481;SDS011;13395;50.752;4.268;2022-07-06T03:25:16;5.63;;;2.90;;
25481;SDS011;13395;50.752;4.268;2022-07-06T03:27:42;7.07;;;3.30;;
25481;SDS011;13395;50.752;4.268;2022-07-06T03:30:07;6.03;;;3.45;;
25481;SDS011;13395;50.752;4.268;2022-07-06T03:32:33;4.22;;;2.92;;
25481;SDS011;13395;50.752;4.268;2022-07-06T03:34:59;6.82;;;3.20;;
25481;SDS011;13395;50.752;4.268;2022-07-06T03:37:25;6.80;;;3.03;;
25481;SDS011;13395;50.752;4.268;2022-07-06T03:39:50;4.40;;;2.50;;
25481;SDS011;13395;50.752;4.268;2022-07-06T03:42:16;6.68;;;3.67;;
25481;SDS011;13395;50.752;4.268;2022-07-06T03:44:41;3.67;;;3.10;;
25481;SDS011;13395;50.752;4.268;2022-07-06T03:47:07;6.90;;;3.20;;
25481;SDS011;13395;50.752;4.268;2022-07-06T03:49:33;4.93;;;2.80;;
25481;SDS011;13395;50.752;4.268;2022-07-06T03:51:58;5.72;;;3.38;;
25481;SDS011;13395;50.752;4.268;2022-07-06T03:54:24;8.48;;;3.55;;
25481;SDS011;13395;50.752;4.268;2022-07-06T03:56:49;4.15;;;3.17;;
25481;SDS011;13395;50.752;4.268;2022-07-06T03:59:15;6.50;;;2.90;;
25481;SDS011;13395;50.752;4.268;2022-07-06T04:01:41;3.83;;;2.60;;
25481;SDS011;13395;50.752;4.268;2022-07-06T04:04:06;4.53;;;2.83;;
25481;SDS011;13395;50.752;4.268;2022-07-06T04:06:32;6.53;;;2.88;;
25481;SDS011;13395;50.752;4.268;2022-07-06T04:08:59;6.00;;;2.78;;
25481;SDS011;13395;50.752;4.268;2022-07-06T04:11:25;6.68;;;3.13;;
25481;SDS011;13395;50.752;4.268;2022-07-06T04:13:51;5.05;;;3.88;;
25481;SDS011;13395;50.752;4.268;2022-07-06T04:16:16;4.80;;;2.95;;
25481;SDS011;13395;50.752;4.268;2022-07-06T04:18:42;4.88;;;2.58;;
25481;SDS011;13395;50.752;4.268;2022-07-06T04:21:07;5.78;;;2.85;;
25481;SDS011;13395;50.752;4.268;2022-07-06T04:23:33;6.10;;;3.33;;
25481;SDS011;13395;50.752;4.268;2022-07-06T04:25:59;4.43;;;2.63;;
25481;SDS011;13395;50.752;4.268;2022-07-06T04:28:24;3.38;;;2.72;;
25481;SDS011;13395;50.752;4.268;2022-07-06T04:30:50;8.68;;;2.78;;
25481;SDS011;13395;50.752;4.268;2022-07-06T04:33:16;5.68;;;2.58;;
25481;SDS011;13395;50.752;4.268;2022-07-06T04:35:42;5.35;;;2.90;;
25481;SDS011;13395;50.752;4.268;2022-07-06T04:38:07;6.75;;;3.10;;
25481;SDS011;13395;50.752;4.268;2022-07-06T04:40:33;5.00;;;2.80;;
25481;SDS011;13395;50.752;4.268;2022-07-06T04:42:59;8.98;;;3.47;;
25481;SDS011;13395;50.752;4.268;2022-07-06T04:45:24;7.00;;;2.78;;
25481;SDS011;13395;50.752;4.268;2022-07-06T04:47:50;6.78;;;2.63;;
25481;SDS011;13395;50.752;4.268;2022-07-06T04:50:16;6.07;;;2.97;;
25481;SDS011;13395;50.752;4.268;2022-07-06T04:52:42;6.78;;;2.90;;
25481;SDS011;13395;50.752;4.268;2022-07-06T04:55:07;5.40;;;3.25;;
25481;SDS011;13395;50.752;4.268;2022-07-06T04:57:33;4.60;;;2.92;;
25481;SDS011;13395;50.752;4.268;2022-07-06T04:59:59;4.82;;;3.38;;
25481;SDS011;13395;50.752;4.268;2022-07-06T05:02:25;5.05;;;3.25;;
25481;SDS011;13395;50.752;4.268;2022-07-06T05:04:51;7.38;;;3.10;;
25481;SDS011;13395;50.752;4.268;2022-07-06T05:07:17;4.30;;;2.83;;
25481;SDS011;13395;50.752;4.268;2022-07-06T05:09:43;8.80;;;3.13;;
25481;SDS011;13395;50.752;4.268;2022-07-06T05:12:09;7.63;;;3.40;;
25481;SDS011;13395;50.752;4.268;2022-07-06T05:14:35;6.07;;;2.83;;
25481;SDS011;13395;50.752;4.268;2022-07-06T05:17:01;4.18;;;2.97;;
25481;SDS011;13395;50.752;4.268;2022-07-06T05:19:27;6.45;;;2.80;;
25481;SDS011;13395;50.752;4.268;2022-07-06T05:21:52;5.07;;;2.63;;
25481;SDS011;13395;50.752;4.268;2022-07-06T05:24:18;6.55;;;2.97;;
25481;SDS011;13395;50.752;4.268;2022-07-06T05:26:44;3.63;;;2.83;;
25481;SDS011;13395;50.752;4.268;2022-07-06T05:29:10;9.25;;;2.70;;
25481;SDS011;13395;50.752;4.268;2022-07-06T05:31:36;7.05;;;3.10;;
25481;SDS011;13395;50.752;4.268;2022-07-06T05:34:01;5.22;;;2.45;;
25481;SDS011;13395;50.752;4.268;2022-07-06T05:36:27;4.72;;;2.58;;
25481;SDS011;13395;50.752;4.268;2022-07-06T05:38:53;10.38;;;4.82;;
25481;SDS011;13395;50.752;4.268;2022-07-06T05:41:18;6.85;;;2.70;;
25481;SDS011;13395;50.752;4.268;2022-07-06T05:43:44;6.85;;;2.72;;
25481;SDS011;13395;50.752;4.268;2022-07-06T05:46:10;8.05;;;2.47;;
25481;SDS011;13395;50.752;4.268;2022-07-06T05:48:35;6.03;;;2.58;;
25481;SDS011;13395;50.752;4.268;2022-07-06T05:51:19;5.25;;;3.35;;
25481;SDS011;13395;50.752;4.268;2022-07-06T05:53:45;9.52;;;3.13;;
25481;SDS011;13395;50.752;4.268;2022-07-06T05:56:10;12.63;;;3.92;;
25481;SDS011;13395;50.752;4.268;2022-07-06T05:58:36;8.98;;;3.83;;
25481;SDS011;13395;50.752;4.268;2022-07-06T06:01:02;9.32;;;3.95;;
25481;SDS011;13395;50.752;4.268;2022-07-06T06:03:27;10.98;;;3.80;;
25481;SDS011;13395;50.752;4.268;2022-07-06T06:05:53;4.78;;;3.65;;
25481;SDS011;13395;50.752;4.268;2022-07-06T06:08:18;9.93;;;4.20;;
25481;SDS011;13395;50.752;4.268;2022-07-06T06:10:44;13.05;;;4.53;;
25481;SDS011;13395;50.752;4.268;2022-07-06T06:13:09;10.73;;;5.28;;
25481;SDS011;13395;50.752;4.268;2022-07-06T06:15:35;9.80;;;4.85;;
25481;SDS011;13395;50.752;4.268;2022-07-06T06:18:01;15.98;;;5.85;;
25481;SDS011;13395;50.752;4.268;2022-07-06T06:20:28;10.85;;;5.40;;
25481;SDS011;13395;50.752;4.268;2022-07-06T06:22:54;10.10;;;5.30;;
25481;SDS011;13395;50.752;4.268;2022-07-06T06:25:36;12.88;;;5.93;;
25481;SDS011;13395;50.752;4.268;2022-07-06T06:28:03;10.40;;;6.00;;
25481;SDS011;13395;50.752;4.268;2022-07-06T06:30:30;7.35;;;5.30;;
25481;SDS011;13395;50.752;4.268;2022-07-06T06:33:12;11.02;;;5.90;;
25481;SDS011;13395;50.752;4.268;2022-07-06T06:35:43;10.38;;;4.97;;
25481;SDS011;13395;50.752;4.268;2022-07-06T06:38:09;11.48;;;5.13;;
25481;SDS011;13395;50.752;4.268;2022-07-06T06:40:35;9.27;;;5.07;;
25481;SDS011;13395;50.752;4.268;2022-07-06T06:43:01;11.40;;;4.20;;
25481;SDS011;13395;50.752;4.268;2022-07-06T06:45:27;7.75;;;4.18;;
25481;SDS011;13395;50.752;4.268;2022-07-06T06:47:52;7.97;;;4.15;;
25481;SDS011;13395;50.752;4.268;2022-07-06T06:50:18;6.60;;;4.47;;
25481;SDS011;13395;50.752;4.268;2022-07-06T06:52:44;12.95;;;5.30;;
25481;SDS011;13395;50.752;4.268;2022-07-06T06:55:09;8.93;;;5.07;;
25481;SDS011;13395;50.752;4.268;2022-07-06T06:57:35;10.38;;;5.40;;
25481;SDS011;13395;50.752;4.268;2022-07-06T07:00:02;11.52;;;5.47;;
25481;SDS011;13395;50.752;4.268;2022-07-06T07:02:29;16.75;;;5.65;;
25481;SDS011;13395;50.752;4.268;2022-07-06T07:04:54;10.30;;;6.68;;
25481;SDS011;13395;50.752;4.268;2022-07-06T07:07:20;15.73;;;6.88;;
25481;SDS011;13395;50.752;4.268;2022-07-06T07:09:46;15.40;;;7.03;;
25481;SDS011;13395;50.752;4.268;2022-07-06T07:12:11;14.27;;;7.25;;
25481;SDS011;13395;50.752;4.268;2022-07-06T07:14:37;16.05;;;7.63;;
25481;SDS011;13395;50.752;4.268;2022-07-06T07:17:03;14.38;;;6.95;;
25481;SDS011;13395;50.752;4.268;2022-07-06T07:19:28;13.45;;;7.13;;
25481;SDS011;13395;50.752;4.268;2022-07-06T07:21:54;17.77;;;7.28;;
25481;SDS011;13395;50.752;4.268;2022-07-06T07:24:19;14.02;;;7.00;;
25481;SDS011;13395;50.752;4.268;2022-07-06T07:26:45;15.65;;;5.90;;
25481;SDS011;13395;50.752;4.268;2022-07-06T07:29:11;11.30;;;5.15;;
25481;SDS011;13395;50.752;4.268;2022-07-06T07:31:36;9.55;;;4.38;;
25481;SDS011;13395;50.752;4.268;2022-07-06T07:34:02;10.05;;;3.63;;
25481;SDS011;13395;50.752;4.268;2022-07-06T07:36:28;11.45;;;3.97;;
25481;SDS011;13395;50.752;4.268;2022-07-06T07:38:53;17.33;;;4.05;;
25481;SDS011;13395;50.752;4.268;2022-07-06T07:41:19;13.27;;;4.90;;
25481;SDS011;13395;50.752;4.268;2022-07-06T07:43:44;10.48;;;3.75;;
25481;SDS011;13395;50.752;4.268;2022-07-06T07:46:10;10.85;;;4.03;;
25481;SDS011;13395;50.752;4.268;2022-07-06T07:48:36;9.85;;;4.03;;
25481;SDS011;13395;50.752;4.268;2022-07-06T07:51:01;10.07;;;3.72;;
25481;SDS011;13395;50.752;4.268;2022-07-06T07:53:27;13.82;;;3.97;;
25481;SDS011;13395;50.752;4.268;2022-07-06T07:55:53;11.57;;;3.47;;
25481;SDS011;13395;50.752;4.268;2022-07-06T07:58:18;10.27;;;3.30;;
25481;SDS011;13395;50.752;4.268;2022-07-06T08:00:44;7.07;;;2.55;;
25481;SDS011;13395;50.752;4.268;2022-07-06T08:03:11;7.15;;;2.10;;
25481;SDS011;13395;50.752;4.268;2022-07-06T08:05:36;3.70;;;1.50;;
25481;SDS011;13395;50.752;4.268;2022-07-06T08:08:02;3.80;;;1.42;;
25481;SDS011;13395;50.752;4.268;2022-07-06T08:10:29;5.25;;;1.95;;
25481;SDS011;13395;50.752;4.268;2022-07-06T08:12:55;5.68;;;1.73;;
25481;SDS011;13395;50.752;4.268;2022-07-06T08:15:20;6.75;;;1.80;;
25481;SDS011;13395;50.752;4.268;2022-07-06T08:17:46;4.95;;;1.95;;
25481;SDS011;13395;50.752;4.268;2022-07-06T08:20:12;4.65;;;1.75;;
25481;SDS011;13395;50.752;4.268;2022-07-06T08:22:37;5.93;;;1.90;;
25481;SDS011;13395;50.752;4.268;2022-07-06T08:25:03;6.32;;;1.75;;
25481;SDS011;13395;50.752;4.268;2022-07-06T08:27:30;16.73;;;2.58;;
25481;SDS011;13395;50.752;4.268;2022-07-06T08:29:56;11.38;;;2.58;;
25481;SDS011;13395;50.752;4.268;2022-07-06T08:32:21;3.60;;;2.10;;
25481;SDS011;13395;50.752;4.268;2022-07-06T08:34:47;5.00;;;1.95;;
25481;SDS011;13395;50.752;4.268;2022-07-06T08:37:13;4.97;;;1.70;;
25481;SDS011;13395;50.752;4.268;2022-07-06T08:39:39;7.07;;;1.80;;
25481;SDS011;13395;50.752;4.268;2022-07-06T08:42:04;4.93;;;2.25;;
25481;SDS011;13395;50.752;4.268;2022-07-06T08:44:32;6.53;;;2.08;;
25481;SDS011;13395;50.752;4.268;2022-07-06T08:47:01;5.32;;;1.83;;
25481;SDS011;13395;50.752;4.268;2022-07-06T08:49:31;4.07;;;1.60;;
25481;SDS011;13395;50.752;4.268;2022-07-06T08:51:59;6.40;;;1.73;;
25481;SDS011;13395;50.752;4.268;2022-07-06T08:54:25;5.10;;;1.75;;
25481;SDS011;13395;50.752;4.268;2022-07-06T08:56:52;6.28;;;1.95;;
25481;SDS011;13395;50.752;4.268;2022-07-06T08:59:18;4.70;;;2.25;;
25481;SDS011;13395;50.752;4.268;2022-07-06T09:01:45;3.38;;;2.10;;
25481;SDS011;13395;50.752;4.268;2022-07-06T09:04:17;4.53;;;2.20;;
25481;SDS011;13395;50.752;4.268;2022-07-06T09:06:47;4.28;;;1.85;;
25481;SDS011;13395;50.752;4.268;2022-07-06T09:09:15;5.05;;;2.15;;
25481;SDS011;13395;50.752;4.268;2022-07-06T09:11:48;3.85;;;1.92;;
25481;SDS011;13395;50.752;4.268;2022-07-06T09:14:14;4.15;;;2.33;;
25481;SDS011;13395;50.752;4.268;2022-07-06T09:16:40;5.75;;;2.35;;
25481;SDS011;13395;50.752;4.268;2022-07-06T09:19:06;5.43;;;2.58;;
25481;SDS011;13395;50.752;4.268;2022-07-06T09:21:33;6.53;;;2.75;;
25481;SDS011;13395;50.752;4.268;2022-07-06T09:24:02;8.18;;;2.67;;
25481;SDS011;13395;50.752;4.268;2022-07-06T09:26:31;5.55;;;3.03;;
25481;SDS011;13395;50.752;4.268;2022-07-06T09:28:57;9.07;;;2.53;;
25481;SDS011;13395;50.752;4.268;2022-07-06T09:31:24;5.43;;;2.47;;
25481;SDS011;13395;50.752;4.268;2022-07-06T09:33:58;5.25;;;2.80;;
25481;SDS011;13395;50.752;4.268;2022-07-06T09:39:24;8.35;;;2.55;;
25481;SDS011;13395;50.752;4.268;2022-07-06T09:42:00;6.80;;;2.63;;
25481;SDS011;13395;50.752;4.268;2022-07-06T09:44:38;6.35;;;2.47;;
25481;SDS011;13395;50.752;4.268;2022-07-06T09:47:06;8.30;;;2.65;;
25481;SDS011;13395;50.752;4.268;2022-07-06T09:49:34;8.88;;;3.33;;
25481;SDS011;13395;50.752;4.268;2022-07-06T09:52:02;16.70;;;4.07;;
25481;SDS011;13395;50.752;4.268;2022-07-06T09:54:32;9.25;;;3.10;;
25481;SDS011;13395;50.752;4.268;2022-07-06T09:56:59;9.90;;;2.63;;
25481;SDS011;13395;50.752;4.268;2022-07-06T09:59:26;6.95;;;2.58;;
25481;SDS011;13395;50.752;4.268;2022-07-06T10:02:03;15.77;;;4.35;;
25481;SDS011;13395;50.752;4.268;2022-07-06T10:04:30;5.57;;;2.67;;
25481;SDS011;13395;50.752;4.268;2022-07-06T10:06:57;7.10;;;2.80;;
25481;SDS011;13395;50.752;4.268;2022-07-06T10:09:25;4.45;;;2.80;;
25481;SDS011;13395;50.752;4.268;2022-07-06T10:14:23;12.77;;;2.72;;
25481;SDS011;13395;50.752;4.268;2022-07-06T10:16:50;5.55;;;2.33;;
25481;SDS011;13395;50.752;4.268;2022-07-06T10:19:17;4.95;;;2.05;;
25481;SDS011;13395;50.752;4.268;2022-07-06T10:21:45;4.35;;;2.03;;
25481;SDS011;13395;50.752;4.268;2022-07-06T10:24:11;5.43;;;2.05;;
25481;SDS011;13395;50.752;4.268;2022-07-06T10:26:38;4.70;;;1.80;;
25481;SDS011;13395;50.752;4.268;2022-07-06T10:29:05;4.60;;;2.10;;
25481;SDS011;13395;50.752;4.268;2022-07-06T10:31:33;9.95;;;2.55;;
25481;SDS011;13395;50.752;4.268;2022-07-06T10:34:03;4.95;;;2.13;;
25481;SDS011;13395;50.752;4.268;2022-07-06T10:36:30;8.63;;;2.25;;
25481;SDS011;13395;50.752;4.268;2022-07-06T10:39:01;5.05;;;2.30;;
25481;SDS011;13395;50.752;4.268;2022-07-06T10:41:47;4.85;;;2.30;;
25481;SDS011;13395;50.752;4.268;2022-07-06T10:44:30;7.50;;;2.75;;
25481;SDS011;13395;50.752;4.268;2022-07-06T10:46:57;7.93;;;2.42;;
25481;SDS011;13395;50.752;4.268;2022-07-06T10:49:24;3.40;;;2.28;;
25481;SDS011;13395;50.752;4.268;2022-07-06T10:51:51;6.15;;;1.83;;
25481;SDS011;13395;50.752;4.268;2022-07-06T10:54:18;7.53;;;2.58;;
25481;SDS011;13395;50.752;4.268;2022-07-06T10:56:49;6.82;;;2.28;;
25481;SDS011;13395;50.752;4.268;2022-07-06T11:04:41;7.57;;;2.10;;
25481;SDS011;13395;50.752;4.268;2022-07-06T11:07:11;4.53;;;1.40;;
25481;SDS011;13395;50.752;4.268;2022-07-06T11:09:38;5.35;;;1.65;;
25481;SDS011;13395;50.752;4.268;2022-07-06T11:14:43;4.80;;;1.98;;
25481;SDS011;13395;50.752;4.268;2022-07-06T11:17:10;6.30;;;2.03;;
25481;SDS011;13395;50.752;4.268;2022-07-06T11:19:36;3.90;;;1.70;;
25481;SDS011;13395;50.752;4.268;2022-07-06T11:22:06;5.30;;;1.88;;
25481;SDS011;13395;50.752;4.268;2022-07-06T11:24:34;3.80;;;1.70;;
25481;SDS011;13395;50.752;4.268;2022-07-06T11:27:02;5.40;;;2.20;;
25481;SDS011;13395;50.752;4.268;2022-07-06T11:29:28;4.85;;;1.90;;
25481;SDS011;13395;50.752;4.268;2022-07-06T11:31:58;5.60;;;2.45;;
25481;SDS011;13395;50.752;4.268;2022-07-06T11:34:29;7.43;;;2.20;;
25481;SDS011;13395;50.752;4.268;2022-07-06T11:37:03;3.97;;;2.13;;
25481;SDS011;13395;50.752;4.268;2022-07-06T11:39:31;5.75;;;2.55;;
25481;SDS011;13395;50.752;4.268;2022-07-06T11:41:58;5.57;;;2.45;;
25481;SDS011;13395;50.752;4.268;2022-07-06T11:44:24;10.70;;;2.63;;
25481;SDS011;13395;50.752;4.268;2022-07-06T11:46:50;5.97;;;2.45;;
25481;SDS011;13395;50.752;4.268;2022-07-06T11:49:16;7.30;;;2.45;;
25481;SDS011;13395;50.752;4.268;2022-07-06T11:51:42;11.57;;;2.53;;
25481;SDS011;13395;50.752;4.268;2022-07-06T11:54:16;7.70;;;2.50;;
25481;SDS011;13395;50.752;4.268;2022-07-06T11:56:51;7.95;;;2.50;;
25481;SDS011;13395;50.752;4.268;2022-07-06T11:59:27;4.90;;;1.90;;
25481;SDS011;13395;50.752;4.268;2022-07-06T12:02:05;5.63;;;2.22;;
25481;SDS011;13395;50.752;4.268;2022-07-06T12:04:39;2.35;;;1.70;;
25481;SDS011;13395;50.752;4.268;2022-07-06T12:07:07;5.07;;;1.90;;
25481;SDS011;13395;50.752;4.268;2022-07-06T12:09:42;4.43;;;2.40;;
25481;SDS011;13395;50.752;4.268;2022-07-06T12:12:09;5.57;;;2.67;;
25481;SDS011;13395;50.752;4.268;2022-07-06T12:14:35;5.35;;;2.40;;
25481;SDS011;13395;50.752;4.268;2022-07-06T12:17:03;5.50;;;2.03;;
25481;SDS011;13395;50.752;4.268;2022-07-06T12:19:34;7.10;;;2.05;;
25481;SDS011;13395;50.752;4.268;2022-07-06T12:22:00;5.50;;;2.50;;
25481;SDS011;13395;50.752;4.268;2022-07-06T12:24:28;4.55;;;1.90;;
25481;SDS011;13395;50.752;4.268;2022-07-06T12:26:56;7.68;;;2.00;;
25481;SDS011;13395;50.752;4.268;2022-07-06T12:29:22;5.68;;;1.80;;
25481;SDS011;13395;50.752;4.268;2022-07-06T12:31:52;5.55;;;2.55;;
25481;SDS011;13395;50.752;4.268;2022-07-06T12:36:53;6.85;;;1.80;;
25481;SDS011;13395;50.752;4.268;2022-07-06T12:39:19;6.18;;;2.05;;
25481;SDS011;13395;50.752;4.268;2022-07-06T12:41:50;6.78;;;2.13;;
25481;SDS011;13395;50.752;4.268;2022-07-06T12:44:19;9.63;;;2.53;;
25481;SDS011;13395;50.752;4.268;2022-07-06T12:46:49;8.18;;;2.63;;
25481;SDS011;13395;50.752;4.268;2022-07-06T12:49:17;3.80;;;1.65;;
25481;SDS011;13395;50.752;4.268;2022-07-06T12:51:51;6.30;;;2.17;;
25481;SDS011;13395;50.752;4.268;2022-07-06T12:59:44;6.20;;;1.85;;
25481;SDS011;13395;50.752;4.268;2022-07-06T13:02:24;20.67;;;3.17;;
25481;SDS011;13395;50.752;4.268;2022-07-06T13:07:25;4.45;;;1.40;;
25481;SDS011;13395;50.752;4.268;2022-07-06T13:09:53;2.70;;;1.50;;
25481;SDS011;13395;50.752;4.268;2022-07-06T13:12:19;6.18;;;1.75;;
25481;SDS011;13395;50.752;4.268;2022-07-06T13:14:46;2.88;;;1.67;;
25481;SDS011;13395;50.752;4.268;2022-07-06T13:17:12;7.45;;;1.45;;
25481;SDS011;13395;50.752;4.268;2022-07-06T13:19:38;7.40;;;1.40;;
25481;SDS011;13395;50.752;4.268;2022-07-06T13:22:03;3.95;;;1.52;;
25481;SDS011;13395;50.752;4.268;2022-07-06T13:24:29;2.72;;;1.30;;
25481;SDS011;13395;50.752;4.268;2022-07-06T13:26:55;3.80;;;1.40;;
25481;SDS011;13395;50.752;4.268;2022-07-06T13:29:22;3.35;;;1.40;;
25481;SDS011;13395;50.752;4.268;2022-07-06T13:31:48;3.50;;;1.75;;
25481;SDS011;13395;50.752;4.268;2022-07-06T13:34:14;8.80;;;1.42;;
25481;SDS011;13395;50.752;4.268;2022-07-06T13:36:39;7.53;;;1.52;;
25481;SDS011;13395;50.752;4.268;2022-07-06T13:39:05;4.13;;;1.42;;
25481;SDS011;13395;50.752;4.268;2022-07-06T13:41:31;3.72;;;1.67;;
25481;SDS011;13395;50.752;4.268;2022-07-06T13:43:58;7.47;;;1.40;;
25481;SDS011;13395;50.752;4.268;2022-07-06T13:46:25;3.75;;;1.70;;
25481;SDS011;13395;50.752;4.268;2022-07-06T13:48:52;6.95;;;1.38;;
25481;SDS011;13395;50.752;4.268;2022-07-06T13:51:17;2.72;;;1.25;;
25481;SDS011;13395;50.752;4.268;2022-07-06T13:53:43;3.00;;;1.23;;
25481;SDS011;13395;50.752;4.268;2022-07-06T13:56:10;5.32;;;1.25;;
25481;SDS011;13395;50.752;4.268;2022-07-06T13:58:36;7.43;;;1.40;;
25481;SDS011;13395;50.752;4.268;2022-07-06T14:01:02;4.85;;;1.30;;
25481;SDS011;13395;50.752;4.268;2022-07-06T14:03:28;4.57;;;1.60;;
25481;SDS011;13395;50.752;4.268;2022-07-06T14:05:55;3.38;;;1.30;;
25481;SDS011;13395;50.752;4.268;2022-07-06T14:08:25;5.57;;;1.75;;
25481;SDS011;13395;50.752;4.268;2022-07-06T14:10:51;7.93;;;2.00;;
25481;SDS011;13395;50.752;4.268;2022-07-06T14:13:18;6.82;;;1.50;;
25481;SDS011;13395;50.752;4.268;2022-07-06T14:15:44;5.72;;;1.40;;
25481;SDS011;13395;50.752;4.268;2022-07-06T14:18:11;3.40;;;1.30;;
25481;SDS011;13395;50.752;4.268;2022-07-06T14:20:37;3.75;;;1.70;;
25481;SDS011;13395;50.752;4.268;2022-07-06T14:23:03;5.22;;;1.75;;
25481;SDS011;13395;50.752;4.268;2022-07-06T14:25:28;8.27;;;2.55;;
25481;SDS011;13395;50.752;4.268;2022-07-06T14:27:54;3.17;;;1.27;;
25481;SDS011;13395;50.752;4.268;2022-07-06T14:30:20;5.90;;;1.40;;
25481;SDS011;13395;50.752;4.268;2022-07-06T14:32:45;6.20;;;1.90;;
25481;SDS011;13395;50.752;4.268;2022-07-06T14:35:11;7.40;;;2.60;;
25481;SDS011;13395;50.752;4.268;2022-07-06T14:37:38;3.33;;;1.50;;
25481;SDS011;13395;50.752;4.268;2022-07-06T14:40:03;5.18;;;1.83;;
25481;SDS011;13395;50.752;4.268;2022-07-06T14:42:29;4.72;;;2.00;;
25481;SDS011;13395;50.752;4.268;2022-07-06T14:44:55;5.25;;;1.73;;
25481;SDS011;13395;50.752;4.268;2022-07-06T14:47:21;5.57;;;1.63;;
25481;SDS011;13395;50.752;4.268;2022-07-06T14:49:46;3.63;;;2.05;;
25481;SDS011;13395;50.752;4.268;2022-07-06T14:52:12;9.35;;;2.03;;
25481;SDS011;13395;50.752;4.268;2022-07-06T14:54:38;3.47;;;1.60;;
25481;SDS011;13395;50.752;4.268;2022-07-06T14:57:04;4.95;;;1.33;;
25481;SDS011;13395;50.752;4.268;2022-07-06T14:59:33;2.10;;;1.30;;
25481;SDS011;13395;50.752;4.268;2022-07-06T15:01:58;3.45;;;1.40;;
25481;SDS011;13395;50.752;4.268;2022-07-06T15:04:24;4.43;;;1.60;;
25481;SDS011;13395;50.752;4.268;2022-07-06T15:06:50;4.28;;;1.95;;